Kasugai, Japan
Current Conditions -  °F | °C
As of 7:30 AM on Tuesday 25 Nov 2014 (Local Time) from RJGG Reporting Station
Moderate Rain Moderate Rain  
Wind Chill: 52°   Ceiling: 1500
Heat Index: 52°   Visibility: 3mi
Dew Point: 50°   Wind: 8mph
Humidity: 94%   Direction: 20°NNE
Pressure: 29.94"   Gusts: NA
Location:  35.24°N, 136.98°E
Report Text: RJGG 242230Z 02007KT 5000 RA BR SCT005 BKN015 11/10 Q1014 TEMPO 3000 RA BR BKN008 BKN012
Loading
Personal Weather Stations






























Interactive Weather Map New forecast layout! Learn more

10-Day Weather Forecast

Advertisements
Track Severe Weather on mobile